Time;durP1;ratioP1;P1;durP2;ratioP2;P2;SDS_P1;SDS_P2;PMS_P1;PMS_P2;Temp;Humidity;BMP_temperature;BMP_pressure;BME280_temperature;BME280_humidity;BME280_pressure;Samples;Min_cycle;Max_cycle;Signal;HPM_P1;HPM_P2
2021/12/21 00:00:21;;;;;;;33.58;19.38;;;;;;;-5.04;100.00;99421.53;12667559;23;20093;-83
2021/12/21 00:05:49;;;;;;;36.80;22.20;;;;;;;-4.86;100.00;99408.72;12674130;23;20038;-81
2021/12/21 00:10:50;;;;;;;56.67;33.45;;;;;;;-4.72;100.00;99414.03;12672459;23;20333;-81
2021/12/21 00:16:08;;;;;;;50.22;24.90;;;;;;;-4.69;100.00;99413.63;12688319;23;20033;-83
2021/12/21 00:21:39;;;;;;;34.08;19.35;;;;;;;-4.74;100.00;99410.81;12682242;23;20026;-81
2021/12/21 00:26:42;;;;;;;29.95;18.50;;;;;;;-4.82;100.00;99409.16;12708941;23;20010;-82
2021/12/21 00:31:48;;;;;;;41.28;22.33;;;;;;;-5.01;100.00;99405.47;12729347;23;20009;-86
2021/12/21 00:36:54;;;;;;;46.03;24.50;;;;;;;-5.03;100.00;99404.84;12715067;23;20026;-79
2021/12/21 00:42:02;;;;;;;34.08;19.65;;;;;;;-5.09;100.00;99402.19;12699802;23;20145;-82
2021/12/21 00:47:05;;;;;;;;;;;;;;;-5.04;100.00;99400.59;12649367;23;20446;-81
2021/12/21 00:52:16;;;;;;;38.33;21.83;;;;;;;-5.04;100.00;99405.81;12688126;23;19928;-83
2021/12/21 00:57:27;;;;;;;42.33;20.35;;;;;;;-5.06;100.00;99402.59;12673929;23;20053;-83
2021/12/21 01:02:41;;;;;;;37.55;18.30;;;;;;;-5.03;100.00;99401.41;12608343;23;20026;-79
2021/12/21 01:07:45;;;;;;;32.08;18.85;;;;;;;-5.25;100.00;99398.06;12675021;23;20022;-78
2021/12/21 01:12:58;;;;;;;32.70;19.63;;;;;;;-5.35;100.00;99406.28;12699970;23;20025;-80
2021/12/21 01:18:14;;;;;;;32.70;18.77;;;;;;;-5.42;100.00;99410.66;12692708;23;20017;-79
2021/12/21 01:28:57;;;;;;;28.05;16.67;;;;;;;-5.40;100.00;99406.03;12689161;23;20010;-84
2021/12/21 01:49:44;;;;;;;22.73;13.15;;;;;;;-5.60;100.00;99392.81;12721450;23;20026;-81
2021/12/21 01:54:47;;;;;;;23.15;14.10;;;;;;;-5.55;100.00;99392.28;12749281;23;20006;-83
2021/12/21 01:59:51;;;;;;;21.38;12.38;;;;;;;-5.75;100.00;99384.28;12728083;23;20036;-84
2021/12/21 02:04:54;;;;;;;26.88;14.15;;;;;;;-5.64;100.00;99381.16;12704163;23;20513;-81
2021/12/21 02:09:57;;;;;;;23.23;11.70;;;;;;;-5.55;100.00;99379.19;12688258;23;20018;-81
2021/12/21 02:15:02;;;;;;;21.08;10.48;;;;;;;-5.67;100.00;99370.25;12705344;23;20017;-84
2021/12/21 02:30:37;;;;;;;20.20;12.25;;;;;;;-5.77;100.00;99353.09;12702110;23;20018;-82
2021/12/21 02:35:58;;;;;;;19.73;11.38;;;;;;;-5.86;100.00;99354.22;12685192;23;20026;-81
2021/12/21 02:41:00;;;;;;;19.27;11.88;;;;;;;-5.72;100.00;99350.72;12704057;23;20077;-80
2021/12/21 02:46:05;;;;;;;24.90;13.75;;;;;;;-5.82;100.00;99349.44;12710861;23;20006;-81
2021/12/21 02:51:27;;;;;;;27.58;16.10;;;;;;;-5.72;100.00;99350.72;12713227;23;20014;-81
2021/12/21 02:56:29;;;;;;;28.70;17.10;;;;;;;-5.75;100.00;99348.50;12728087;23;20002;-85
2021/12/21 03:01:36;;;;;;;25.42;14.18;;;;;;;-5.75;100.00;99347.69;12729115;23;20074;-83
2021/12/21 03:07:48;;;;;;;25.45;14.80;;;;;;;-5.66;100.00;99337.91;12724362;23;20002;-83
2021/12/21 03:17:41;;;;;;;27.77;15.15;;;;;;;-5.88;100.00;99342.34;12617903;23;20041;-81
2021/12/21 03:23:14;;;;;;;28.33;14.80;;;;;;;-5.59;100.00;99334.28;12695159;23;20041;-85
2021/12/21 03:28:16;;;;;;;23.90;13.18;;;;;;;-5.55;100.00;99337.34;12690495;23;20049;-81
2021/12/21 03:33:22;;;;;;;20.33;12.52;;;;;;;-5.76;100.00;99338.22;12698813;23;20014;-79
2021/12/21 03:38:46;;;;;;;26.70;15.30;;;;;;;-5.70;100.00;99337.44;10438918;27;20396;-81
2021/12/21 03:43:55;;;;;;;24.20;13.30;;;;;;;-5.73;100.00;99335.22;10417382;28;20054;-81
2021/12/21 03:48:58;;;;;;;19.20;13.20;;;;;;;-5.91;100.00;99327.91;10427843;28;20030;-83
2021/12/21 03:53:58;;;;;;;23.42;13.70;;;;;;;-5.75;100.00;99321.53;10417177;28;20068;-85
2021/12/21 03:58:59;;;;;;;22.45;13.10;;;;;;;-5.85;100.00;99324.50;10399139;28;20066;-84
2021/12/21 04:04:01;;;;;;;24.40;13.85;;;;;;;-5.76;100.00;99320.75;10405246;28;20054;-86
2021/12/21 04:09:04;;;;;;;21.63;13.45;;;;;;;-5.81;100.00;99328.34;10458350;28;20037;-82
2021/12/21 04:14:06;;;;;;;;;;;;;;;-5.84;100.00;99327.94;10413728;28;20121;-79
2021/12/21 04:19:08;;;;;;;25.13;13.68;;;;;;;-5.91;100.00;99322.69;10437024;28;20003;-80
2021/12/21 04:24:30;;;;;;;22.13;12.95;;;;;;;-6.01;100.00;99314.38;10463329;28;20045;-81
2021/12/21 04:29:32;;;;;;;27.42;13.05;;;;;;;-6.08;100.00;99323.94;10458388;28;20425;-81
2021/12/21 04:34:34;;;;;;;23.70;13.13;;;;;;;-6.07;100.00;99326.38;10448719;28;20045;-78
2021/12/21 04:39:42;;;;;;;20.27;12.55;;;;;;;-5.93;100.00;99318.66;10435203;28;20079;-80
2021/12/21 04:44:42;;;;;;;20.95;12.88;;;;;;;-5.93;100.00;99321.25;10447164;28;20060;-83
2021/12/21 04:49:44;;;;;;;20.05;12.07;;;;;;;-5.98;100.00;99323.63;10444552;28;20045;-80
2021/12/21 04:54:47;;;;;;;21.65;12.15;;;;;;;-6.09;100.00;99312.69;10433802;28;20037;-80
2021/12/21 04:59:49;;;;;;;18.90;12.18;;;;;;;-5.99;100.00;99317.59;10407170;28;20049;-81
2021/12/21 05:04:51;;;;;;;20.40;11.50;;;;;;;-6.20;100.00;99320.25;10413639;28;20055;-80
2021/12/21 05:09:56;;;;;;;20.33;11.18;;;;;;;-6.31;100.00;99321.53;10375165;28;20400;-80
2021/12/21 05:14:58;;;;;;;23.10;12.02;;;;;;;-6.46;100.00;99323.44;10398633;28;20045;-79
2021/12/21 05:20:00;;;;;;;22.27;11.88;;;;;;;-6.29;100.00;99324.00;10430334;28;20141;-80
2021/12/21 05:25:01;;;;;;;19.35;11.88;;;;;;;-6.37;100.00;99317.91;10454808;28;20054;-78
2021/12/21 05:30:04;;;;;;;17.48;10.93;;;;;;;-6.46;100.00;99320.84;10417360;28;20086;-80
2021/12/21 05:35:12;;;;;;;18.67;10.77;;;;;;;-6.64;100.00;99324.69;10414089;28;20046;-82
2021/12/21 05:40:17;;;;;;;22.17;12.57;;;;;;;-6.51;100.00;99329.22;10402394;28;20042;-81
2021/12/21 05:45:18;;;;;;;20.15;11.32;;;;;;;-6.42;100.00;99322.06;10424052;28;20065;-84
2021/12/21 05:50:21;;;;;;;;;;;;;;;-6.51;100.00;99326.59;10434749;28;20063;-80
2021/12/21 05:55:22;;;;;;;18.95;11.35;;;;;;;-6.47;100.00;99332.28;10413524;28;19961;-81
2021/12/21 06:00:27;;;;;;;16.15;10.05;;;;;;;-6.66;100.00;99331.09;10401449;28;20092;-80
2021/12/21 06:05:29;;;;;;;20.23;12.13;;;;;;;-6.54;100.00;99328.78;10432232;28;20052;-81
2021/12/21 06:10:40;;;;;;;21.67;12.60;;;;;;;-6.46;100.00;99336.50;10426626;28;20029;-82
2021/12/21 06:26:51;;;;;;;16.60;11.02;;;;;;;-6.60;100.00;99328.53;10222522;28;19923;-79
2021/12/21 06:31:52;;;;;;;23.25;12.25;;;;;;;-6.75;100.00;99332.22;10201408;28;20048;-79
2021/12/21 06:36:56;;;;;;;24.65;12.32;;;;;;;-6.55;100.00;99322.75;10176687;28;20071;-79
2021/12/21 06:41:58;;;;;;;15.82;10.95;;;;;;;-6.44;100.00;99329.28;10166981;28;20062;-80
2021/12/21 06:52:10;;;;;;;21.10;11.93;;;;;;;-6.43;100.00;99339.53;10159459;28;20075;-81
2021/12/21 06:57:13;;;;;;;20.30;12.00;;;;;;;-6.40;100.00;99336.56;10169461;28;20067;-80
2021/12/21 07:02:17;;;;;;;18.52;11.13;;;;;;;-6.46;100.00;99341.72;10193529;28;20060;-80
2021/12/21 07:07:30;;;;;;;19.25;11.30;;;;;;;-6.51;100.00;99344.06;10157026;28;20045;-79
2021/12/21 07:23:03;;;;;;;23.35;12.18;;;;;;;-6.33;100.00;99339.22;10171422;28;20072;-78
2021/12/21 07:28:04;;;;;;;23.70;11.57;;;;;;;-6.45;100.00;99344.16;10195817;28;20052;-80
2021/12/21 07:33:04;;;;;;;15.77;10.85;;;;;;;-6.29;100.00;99344.91;10202067;28;20032;-80
2021/12/21 07:38:05;;;;;;;20.70;11.73;;;;;;;-6.18;100.00;99341.75;10198132;28;20143;-79
2021/12/21 07:43:06;;;;;;;16.42;10.05;;;;;;;-6.12;100.00;99334.00;10188447;28;20037;-80
2021/12/21 07:48:08;;;;;;;19.25;10.48;;;;;;;-6.02;100.00;99333.66;10240360;28;20044;-78
2021/12/21 07:53:10;;;;;;;23.00;11.35;;;;;;;-5.98;100.00;99336.69;10232628;28;20036;-81
2021/12/21 07:58:15;;;;;;;21.20;12.32;;;;;;;-5.89;100.00;99345.97;10205479;28;20404;-85
2021/12/21 08:03:20;;;;;;;27.08;15.93;;;;;;;-5.62;100.00;99345.16;10198679;28;20063;-80
2021/12/21 08:08:26;;;;;;;;;;;;;;;-5.50;100.00;99346.22;10186648;28;21041;-76
2021/12/21 08:13:29;;;;;;;23.00;14.25;;;;;;;-5.31;100.00;99342.09;10198441;28;19927;-79
2021/12/21 08:18:30;;;;;;;23.85;14.10;;;;;;;-5.45;100.00;99343.84;10186836;28;20091;-78
2021/12/21 08:23:38;;;;;;;22.27;12.40;;;;;;;-5.29;100.00;99336.69;10219099;28;20068;-77
2021/12/21 08:28:40;;;;;;;20.15;12.48;;;;;;;-5.25;100.00;99343.13;10220890;29;20039;-80
2021/12/21 08:33:44;;;;;;;19.25;11.82;;;;;;;-5.03;100.00;99336.78;10206013;28;20108;-82
2021/12/21 08:38:49;;;;;;;18.17;11.30;;;;;;;-4.74;100.00;99333.06;10207040;28;20090;-78
2021/12/21 08:43:55;;;;;;;23.60;11.87;;;;;;;-4.73;100.00;99323.38;10185804;28;20069;-79
2021/12/21 08:48:57;;;;;;;18.60;10.93;;;;;;;-4.48;100.00;99329.69;10217061;28;20040;-82
2021/12/21 08:53:58;;;;;;;17.02;11.02;;;;;;;-4.11;100.00;99322.25;10212050;28;20044;-80
2021/12/21 08:59:04;;;;;;;21.23;11.63;;;;;;;-4.21;100.00;99314.75;10234712;28;20043;-80
2021/12/21 09:04:06;;;;;;;15.95;10.40;;;;;;;-4.31;100.00;99317.78;10213976;28;20784;-80
2021/12/21 09:09:08;;;;;;;20.80;12.52;;;;;;;-3.74;100.00;99320.78;10203286;28;20040;-81
2021/12/21 09:14:13;;;;;;;17.67;11.13;;;;;;;-3.90;100.00;99318.59;10213660;28;20043;-83
2021/12/21 09:19:16;;;;;;;18.75;11.80;;;;;;;-3.69;100.00;99315.72;10202363;28;20535;-80
2021/12/21 09:24:18;;;;;;;18.75;11.23;;;;;;;-3.30;100.00;99327.13;10188702;28;20084;-80
2021/12/21 09:29:18;;;;;;;24.38;12.90;;;;;;;-3.00;100.00;99324.81;10183243;28;20626;-79
2021/12/21 09:34:19;;;;;;;19.30;11.18;;;;;;;-3.13;100.00;99332.72;10179686;28;20155;-80
2021/12/21 09:39:19;;;;;;;24.75;14.23;;;;;;;-2.76;100.00;99334.56;10154432;28;20060;-82
2021/12/21 09:44:20;;;;;;;17.95;11.13;;;;;;;-2.59;100.00;99340.94;10182482;28;20061;-81
2021/12/21 09:49:24;;;;;;;18.88;10.25;;;;;;;-2.82;100.00;99329.38;10172662;28;20060;-80
2021/12/21 09:54:26;;;;;;;14.73;9.85;;;;;;;-2.79;100.00;99326.31;10168569;28;20546;-81
2021/12/21 09:59:27;;;;;;;19.27;9.75;;;;;;;-2.47;100.00;99322.69;10165523;28;20048;-79
2021/12/21 10:04:29;;;;;;;15.73;10.10;;;;;;;-2.75;100.00;99332.75;10155299;28;20080;-78
2021/12/21 10:09:34;;;;;;;14.77;8.75;;;;;;;-2.51;100.00;99331.19;10173428;28;20059;-79
2021/12/21 10:14:44;;;;;;;13.13;8.05;;;;;;;-2.31;100.00;99331.88;10192245;28;20036;-85
2021/12/21 10:19:47;;;;;;;15.10;8.15;;;;;;;-2.10;100.00;99330.72;10177095;28;20632;-79
2021/12/21 10:24:50;;;;;;;16.30;9.70;;;;;;;-1.83;100.00;99331.28;10171969;28;20048;-79
2021/12/21 10:29:58;;;;;;;18.15;9.45;;;;;;;-1.75;100.00;99328.38;10195926;28;20107;-81
2021/12/21 10:35:10;;;;;;;10.90;7.50;;;;;;;-1.95;100.00;99325.91;10197973;28;20052;-82
2021/12/21 10:40:23;;;;;;;13.47;8.67;;;;;;;-1.97;100.00;99325.34;10166433;28;20049;-75
2021/12/21 10:45:42;;;;;;;10.00;7.53;;;;;;;-1.76;100.00;99318.88;10160381;29;20083;-80
2021/12/21 10:50:47;;;;;;;10.30;7.00;;;;;;;-1.62;100.00;99307.19;10176066;29;20064;-81
2021/12/21 10:56:09;;;;;;;10.73;7.38;;;;;;;-1.69;100.00;99289.84;10135379;29;20053;-80
2021/12/21 11:01:15;;;;;;;12.05;7.15;;;;;;;-1.42;100.00;99287.75;10108071;29;20248;-80
2021/12/21 11:06:18;;;;;;;12.32;8.07;;;;;;;-1.12;100.00;99280.69;10135140;29;20049;-78
2021/12/21 11:11:44;;;;;;;15.38;7.72;;;;;;;-0.70;100.00;99280.75;10124120;29;20056;-81
2021/12/21 11:16:51;;;;;;;13.05;8.35;;;;;;;-0.26;100.00;99266.28;10138619;29;20085;-82
2021/12/21 11:21:55;;;;;;;13.65;8.00;;;;;;;0.29;100.00;99258.00;10154986;29;20055;-78
2021/12/21 11:26:56;;;;;;;11.02;7.20;;;;;;;0.77;100.00;99260.31;10148119;29;20074;-78
2021/12/21 11:32:08;;;;;;;10.95;7.35;;;;;;;1.01;100.00;99252.31;10116239;29;20099;-79
2021/12/21 11:43:23;;;;;;;11.98;7.40;;;;;;;1.24;100.00;99236.31;10138288;28;20064;-82
2021/12/21 11:48:30;;;;;;;10.10;6.05;;;;;;;1.19;100.00;99224.84;10164935;29;20056;-79
2021/12/21 11:53:33;;;;;;;10.70;6.40;;;;;;;1.23;100.00;99220.69;10108766;29;20059;-82
2021/12/21 11:58:53;;;;;;;10.73;6.35;;;;;;;1.43;100.00;99213.91;10182978;28;20071;-80
2021/12/21 12:04:08;;;;;;;11.13;7.47;;;;;;;1.96;100.00;99209.94;10214780;28;20154;-79
2021/12/21 12:09:11;;;;;;;13.45;6.13;;;;;;;2.18;100.00;99209.16;10151055;29;20071;-78
2021/12/21 12:14:15;;;;;;;13.10;7.47;;;;;;;1.66;100.00;99207.66;10207096;29;20079;-80
2021/12/21 12:19:20;;;;;;;;;;;;;;;1.90;100.00;99205.59;10197230;29;20055;-78
2021/12/21 12:24:22;;;;;;;10.82;5.75;;;;;;;2.15;100.00;99197.22;10206488;28;19946;-79
2021/12/21 12:29:23;;;;;;;9.48;6.25;;;;;;;2.19;100.00;99193.00;10219736;28;20067;-78
2021/12/21 12:34:27;;;;;;;10.63;6.90;;;;;;;2.38;100.00;99196.19;10210013;28;20040;-76
2021/12/21 12:39:37;;;;;;;9.02;5.78;;;;;;;2.84;100.00;99186.09;10230926;28;20047;-78
2021/12/21 12:44:43;;;;;;;8.77;6.13;;;;;;;3.10;100.00;99184.47;10214792;28;20056;-81
2021/12/21 12:49:54;;;;;;;10.15;6.18;;;;;;;3.00;100.00;99195.78;10190886;28;20060;-79
2021/12/21 12:55:14;;;;;;;10.25;6.00;;;;;;;2.03;100.00;99183.28;10183109;28;20059;-78
2021/12/21 13:00:28;;;;;;;10.00;6.45;;;;;;;1.85;100.00;99188.88;10164716;29;20372;-79
2021/12/21 13:05:52;;;;;;;9.00;6.20;;;;;;;1.35;100.00;99187.84;10158425;29;20048;-79
2021/12/21 13:10:58;;;;;;;11.32;6.85;;;;;;;0.97;100.00;99195.66;10194211;29;20060;-79
2021/12/21 13:16:27;;;;;;;10.57;6.33;;;;;;;0.82;100.00;99194.38;10190404;29;20059;-83
2021/12/21 13:21:35;;;;;;;10.93;7.50;;;;;;;0.69;100.00;99205.19;10218068;28;20084;-82
2021/12/21 13:26:37;;;;;;;10.93;6.97;;;;;;;0.68;100.00;99195.66;10210000;28;20084;-77
2021/12/21 13:31:38;;;;;;;10.57;6.93;;;;;;;0.60;100.00;99192.59;10213823;28;20047;-80
2021/12/21 13:36:45;;;;;;;11.55;6.60;;;;;;;0.66;100.00;99192.47;10230120;28;20127;-80
2021/12/21 13:41:49;;;;;;;11.60;6.35;;;;;;;0.52;100.00;99189.28;10177410;28;20517;-79
2021/12/21 13:46:51;;;;;;;11.38;7.30;;;;;;;0.44;100.00;99194.13;10177012;29;20551;-79
2021/12/21 13:51:58;;;;;;;10.80;7.07;;;;;;;0.43;100.00;99195.19;10183163;28;20052;-78
2021/12/21 13:57:02;;;;;;;12.63;6.40;;;;;;;0.33;100.00;99197.63;10159319;28;20052;-80
2021/12/21 14:02:07;;;;;;;11.50;6.15;;;;;;;0.23;100.00;99187.66;10164514;28;20051;-79
2021/12/21 14:07:07;;;;;;;;;;;;;;;0.26;100.00;99180.06;10179955;29;20048;-77
2021/12/21 14:12:13;;;;;;;11.15;6.47;;;;;;;0.12;100.00;99188.47;10154837;28;20005;-80
2021/12/21 14:17:14;;;;;;;11.13;6.72;;;;;;;0.08;100.00;99192.59;10173421;28;20476;-78
2021/12/21 14:22:20;;;;;;;11.13;6.05;;;;;;;0.08;100.00;99198.69;10186281;28;20035;-80
2021/12/21 14:27:30;;;;;;;9.95;6.28;;;;;;;0.11;100.00;99194.81;10162158;28;20052;-78
2021/12/21 14:32:52;;;;;;;9.90;6.63;;;;;;;0.05;100.00;99193.88;10149785;28;20135;-79
2021/12/21 14:38:04;;;;;;;9.75;6.47;;;;;;;0.05;100.00;99198.34;10157554;28;20040;-79
2021/12/21 14:43:04;;;;;;;11.48;5.97;;;;;;;0.01;100.00;99202.50;10186547;28;20063;-78
2021/12/21 14:48:17;;;;;;;10.40;6.00;;;;;;;-0.04;100.00;99203.19;10156923;28;20055;-78
2021/12/21 14:53:21;;;;;;;10.27;6.43;;;;;;;-0.17;100.00;99196.31;10155283;28;20055;-81
2021/12/21 14:58:22;;;;;;;10.10;5.93;;;;;;;-0.37;100.00;99196.63;10154211;28;20044;-78
2021/12/21 15:03:22;;;;;;;10.10;6.13;;;;;;;-0.33;100.00;99204.91;10165015;29;20068;-78
2021/12/21 15:08:23;;;;;;;10.32;6.90;;;;;;;-0.38;100.00;99202.94;10164773;29;20546;-78
2021/12/21 15:13:24;;;;;;;12.15;7.72;;;;;;;-0.47;100.00;99206.94;10146218;28;20055;-80
2021/12/21 15:18:24;;;;;;;10.55;6.82;;;;;;;-0.53;100.00;99204.44;10202761;23;20048;-78
2021/12/21 15:23:26;;;;;;;13.52;6.95;;;;;;;-0.45;100.00;99217.31;10170751;29;20057;-79
2021/12/21 15:28:26;;;;;;;10.85;7.55;;;;;;;-0.48;100.00;99213.25;10168587;28;20055;-78
2021/12/21 15:33:27;;;;;;;11.48;6.50;;;;;;;-0.62;100.00;99206.63;10161945;29;20055;-77
2021/12/21 15:38:32;;;;;;;13.60;7.55;;;;;;;-0.67;100.00;99215.19;10167873;28;20090;-78
2021/12/21 15:43:37;;;;;;;12.57;7.55;;;;;;;-0.80;100.00;99206.69;10160838;29;20091;-79
2021/12/21 15:48:44;;;;;;;13.65;7.38;;;;;;;-0.86;100.00;99216.28;10187435;29;20060;-83
2021/12/21 15:53:47;;;;;;;9.27;6.40;;;;;;;-1.06;100.00;99216.59;10183202;29;20147;-79
2021/12/21 15:58:48;;;;;;;11.73;7.03;;;;;;;-1.26;100.00;99216.06;10197740;29;20063;-80
2021/12/21 16:03:48;;;;;;;11.55;7.82;;;;;;;-1.30;100.00;99215.69;10198027;29;20132;-86
2021/12/21 16:08:49;;;;;;;11.55;7.78;;;;;;;-1.32;100.00;99219.56;10191901;28;20080;-77
2021/12/21 16:13:49;;;;;;;10.50;6.82;;;;;;;-1.52;100.00;99231.16;10199338;29;20056;-82
2021/12/21 16:18:50;;;;;;;9.35;6.22;;;;;;;-1.58;100.00;99231.22;10215699;28;20071;-82
2021/12/21 16:23:50;;;;;;;12.93;7.00;;;;;;;-1.72;100.00;99235.84;10183491;28;20044;-78
2021/12/21 16:28:51;;;;;;;8.32;5.82;;;;;;;-1.78;100.00;99231.44;10177250;28;20052;-78
2021/12/21 16:33:53;;;;;;;12.35;7.47;;;;;;;-1.88;100.00;99231.97;10175954;29;20060;-78
2021/12/21 16:38:55;;;;;;;10.93;7.23;;;;;;;-2.17;100.00;99230.03;10171580;28;20054;-78
2021/12/21 16:44:02;;;;;;;9.45;6.78;;;;;;;-2.33;100.00;99239.25;10163905;28;20167;-78
2021/12/21 16:49:04;;;;;;;12.77;7.18;;;;;;;-2.40;100.00;99239.31;10172518;28;20139;-79
2021/12/21 16:54:05;;;;;;;13.25;7.75;;;;;;;-2.52;100.00;99234.97;10160985;28;20062;-77
2021/12/21 16:59:10;;;;;;;13.93;9.13;;;;;;;-2.74;100.00;99231.88;10160122;28;20057;-78
2021/12/21 17:04:12;;;;;;;15.90;9.38;;;;;;;-2.62;100.00;99238.09;10168494;28;20051;-81
2021/12/21 17:09:13;;;;;;;16.23;10.32;;;;;;;-2.64;100.00;99253.28;10156094;28;20075;-79
2021/12/21 17:14:14;;;;;;;14.30;8.80;;;;;;;-2.84;100.00;99253.38;10176121;28;20082;-79
2021/12/21 17:19:15;;;;;;;16.90;10.20;;;;;;;-3.08;100.00;99254.16;10167964;28;20338;-78
2021/12/21 17:24:17;;;;;;;18.77;11.68;;;;;;;-3.13;100.00;99252.13;10163606;29;20055;-78
2021/12/21 17:29:21;;;;;;;18.13;11.63;;;;;;;-3.01;100.00;99263.59;10182231;28;20056;-77
2021/12/21 17:34:21;;;;;;;18.17;10.40;;;;;;;-3.13;100.00;99273.13;10191247;28;20129;-80
2021/12/21 17:39:22;;;;;;;16.65;9.85;;;;;;;-3.37;100.00;99271.25;10186750;28;20076;-78
2021/12/21 17:44:25;;;;;;;19.08;11.10;;;;;;;-3.53;100.00;99275.94;10185522;28;20068;-79
2021/12/21 17:49:27;;;;;;;14.63;9.45;;;;;;;-3.64;100.00;99281.81;10202731;28;20043;-79
2021/12/21 17:54:28;;;;;;;17.58;10.48;;;;;;;-3.74;100.00;99284.06;10227132;28;20036;-79
2021/12/21 17:59:29;;;;;;;17.05;10.63;;;;;;;-3.80;100.00;99285.69;10187899;28;20067;-80
2021/12/21 18:04:29;;;;;;;25.08;15.52;;;;;;;-3.42;100.00;99302.53;10189766;28;20052;-79
2021/12/21 18:09:30;;;;;;;21.40;14.75;;;;;;;-3.29;100.00;99315.59;10166729;28;20071;-79
2021/12/21 18:14:32;;;;;;;28.02;18.00;;;;;;;-3.29;100.00;99315.59;10161284;28;20112;-78
2021/12/21 18:19:33;;;;;;;22.88;15.45;;;;;;;-3.41;100.00;99310.19;10155615;28;20059;-77
2021/12/21 18:24:34;;;;;;;21.45;14.20;;;;;;;-3.59;100.00;99304.81;10169711;28;20075;-82
2021/12/21 18:29:35;;;;;;;16.23;10.77;;;;;;;-3.80;100.00;99293.56;10158784;28;20484;-78
2021/12/21 18:34:35;;;;;;;19.90;13.50;;;;;;;-3.94;100.00;99305.06;10157482;28;20048;-77
2021/12/21 18:39:36;;;;;;;30.00;15.95;;;;;;;-3.96;100.00;99309.72;10161594;28;20052;-77
2021/12/21 18:44:39;;;;;;;31.20;19.10;;;;;;;-3.99;100.00;99304.88;10156512;28;20139;-79
2021/12/21 18:49:40;;;;;;;;;;;;;;;-3.98;100.00;99300.44;10161644;28;20047;-77
2021/12/21 18:54:40;;;;;;;22.80;14.18;;;;;;;-4.11;100.00;99309.13;10145461;28;19982;-79
2021/12/21 18:59:41;;;;;;;23.77;14.57;;;;;;;-4.34;100.00;99315.56;10154221;28;20473;-78
2021/12/21 19:04:42;;;;;;;23.13;14.57;;;;;;;-4.40;100.00;99318.97;10157206;28;20135;-78
2021/12/21 19:09:42;;;;;;;27.85;16.08;;;;;;;-4.42;100.00;99309.72;10163088;28;20052;-79
2021/12/21 19:14:44;;;;;;;23.20;14.52;;;;;;;-4.48;100.00;99305.28;10170109;28;20107;-79
2021/12/21 19:19:45;;;;;;;24.63;15.00;;;;;;;-4.52;100.00;99309.31;10175295;28;20083;-79
2021/12/21 19:24:45;;;;;;;24.63;14.95;;;;;;;-4.60;100.00;99318.16;10193054;28;20075;-77
2021/12/21 19:29:47;;;;;;;26.45;15.95;;;;;;;-4.64;100.00;99327.44;10193009;29;20036;-78
2021/12/21 19:34:48;;;;;;;24.73;14.85;;;;;;;-4.75;100.00;99320.97;10209355;28;20053;-78
2021/12/21 19:39:49;;;;;;;33.92;17.73;;;;;;;-4.80;100.00;99338.25;10161853;28;20048;-79
2021/12/21 19:44:52;;;;;;;30.83;17.45;;;;;;;-4.66;100.00;99340.72;10188117;28;20080;-83
2021/12/21 19:49:53;;;;;;;27.08;16.58;;;;;;;-4.66;100.00;99340.72;10180821;29;20420;-78
2021/12/21 19:54:58;;;;;;;30.95;17.48;;;;;;;-4.67;100.00;99341.72;10185153;28;20135;-79
2021/12/21 20:00:01;;;;;;;31.67;16.88;;;;;;;-4.66;100.00;99345.16;10145060;28;20493;-77
2021/12/21 20:05:03;;;;;;;33.75;18.23;;;;;;;-4.67;100.00;99354.00;10140053;28;20060;-77
2021/12/21 20:10:10;;;;;;;30.80;16.65;;;;;;;-4.80;100.00;99365.25;10162573;28;20476;-77
2021/12/21 20:15:18;;;;;;;28.25;17.38;;;;;;;-4.81;100.00;99362.84;10145005;28;20062;-78
2021/12/21 20:20:19;;;;;;;28.58;16.95;;;;;;;-5.00;100.00;99357.34;10142622;29;20048;-77
2021/12/21 20:25:21;;;;;;;24.55;16.10;;;;;;;-5.16;100.00;99352.44;10145003;28;20049;-84
2021/12/21 20:30:21;;;;;;;31.10;17.00;;;;;;;-5.20;100.00;99352.03;10169509;28;20063;-76
2021/12/21 20:35:26;;;;;;;28.45;16.35;;;;;;;-5.31;100.00;99354.34;10170049;28;20056;-77
2021/12/21 20:40:28;;;;;;;32.00;18.85;;;;;;;-5.20;100.00;99356.44;10164914;28;20054;-76
2021/12/21 20:45:31;;;;;;;29.70;19.25;;;;;;;-5.36;100.00;99359.38;10182402;28;20111;-76
2021/12/21 20:50:35;;;;;;;35.38;18.45;;;;;;;-5.27;100.00;99366.88;10177786;29;20088;-76
2021/12/21 20:55:39;;;;;;;;;;;;;;;-5.44;100.00;99357.72;10209568;28;20044;-79
2021/12/21 21:00:42;;;;;;;26.63;16.98;;;;;;;-5.51;100.00;99359.50;10215053;28;19982;-79
2021/12/21 21:05:43;;;;;;;29.08;16.65;;;;;;;-5.70;100.00;99370.63;10203379;28;20121;-76
2021/12/21 21:10:44;;;;;;;26.95;16.33;;;;;;;-5.86;100.00;99366.50;10190293;28;20107;-77
2021/12/21 21:15:45;;;;;;;29.13;17.17;;;;;;;-5.82;100.00;99363.31;10161760;28;20084;-78
2021/12/21 21:20:47;;;;;;;36.80;20.23;;;;;;;-5.87;100.00;99365.69;10167413;28;20591;-76
2021/12/21 21:25:49;;;;;;;31.05;18.65;;;;;;;-5.94;100.00;99367.50;10174880;28;20049;-77
2021/12/21 21:30:51;;;;;;;44.70;23.52;;;;;;;-5.86;100.00;99372.53;10157707;28;20085;-77
2021/12/21 21:35:52;;;;;;;40.28;22.00;;;;;;;-6.10;100.00;99365.16;10192296;28;20077;-77
2021/12/21 21:40:53;;;;;;;38.90;22.77;;;;;;;-6.09;100.00;99358.94;10180127;28;20058;-77
2021/12/21 21:45:53;;;;;;;37.45;21.65;;;;;;;-6.12;100.00;99381.03;10170577;28;20131;-77
2021/12/21 21:50:57;;;;;;;35.45;20.80;;;;;;;-6.21;100.00;99381.34;10161715;28;20139;-77
2021/12/21 21:55:59;;;;;;;40.92;22.85;;;;;;;-6.17;100.00;99393.03;10171603;28;20061;-78
2021/12/21 22:01:00;;;;;;;40.05;22.13;;;;;;;-6.22;100.00;99403.22;10182903;28;20056;-78
2021/12/21 22:06:03;;;;;;;35.90;22.07;;;;;;;-6.29;100.00;99405.78;10155851;29;20072;-80
2021/12/21 22:11:07;;;;;;;38.65;23.55;;;;;;;-6.29;100.00;99411.00;10141354;29;20048;-77
2021/12/21 22:16:08;;;;;;;37.47;21.83;;;;;;;-6.40;100.00;99414.91;10161854;28;20088;-77
2021/12/21 22:21:09;;;;;;;36.08;22.17;;;;;;;-6.47;100.00;99424.47;10173389;28;20055;-78
2021/12/21 22:26:13;;;;;;;38.95;21.40;;;;;;;-6.55;100.00;99427.19;10177173;28;20052;-77
2021/12/21 22:31:16;;;;;;;35.90;21.23;;;;;;;-6.62;100.00;99432.34;10178115;28;20140;-78
2021/12/21 22:36:17;;;;;;;36.35;20.80;;;;;;;-6.69;100.00;99431.44;10166404;28;20131;-79
2021/12/21 22:41:21;;;;;;;38.33;22.50;;;;;;;-6.62;100.00;99437.56;10175959;28;20084;-77
2021/12/21 22:46:22;;;;;;;35.50;19.85;;;;;;;-6.53;100.00;99434.84;10155677;28;20104;-77
2021/12/21 22:51:25;;;;;;;36.17;20.58;;;;;;;-6.57;100.00;99437.03;10139648;28;20057;-76
2021/12/21 22:56:26;;;;;;;34.03;20.60;;;;;;;-6.51;100.00;99440.69;10144288;29;20048;-77
2021/12/21 23:01:26;;;;;;;34.10;20.65;;;;;;;-6.54;100.00;99438.44;10128182;28;20159;-76
2021/12/21 23:06:28;;;;;;;38.85;23.17;;;;;;;-6.57;100.00;99444.84;10141117;28;20049;-76
2021/12/21 23:11:29;;;;;;;35.05;19.20;;;;;;;-6.78;100.00;99445.59;10144295;28;20068;-78
2021/12/21 23:16:29;;;;;;;34.00;20.80;;;;;;;-6.76;100.00;99451.47;10180428;28;20052;-76
2021/12/21 23:21:30;;;;;;;33.17;20.20;;;;;;;-6.72;100.00;99452.72;10149278;28;20052;-77
2021/12/21 23:26:33;;;;;;;32.83;19.73;;;;;;;-6.80;100.00;99454.59;10146625;28;20048;-76
2021/12/21 23:31:34;;;;;;;30.45;19.15;;;;;;;-6.94;100.00;99454.44;10145168;28;20086;-76
2021/12/21 23:36:35;;;;;;;36.10;21.40;;;;;;;-6.80;100.00;99447.59;10146326;28;20066;-76
2021/12/21 23:41:35;;;;;;;36.30;20.77;;;;;;;-6.87;100.00;99444.06;10155546;28;20209;-77
2021/12/21 23:46:36;;;;;;;33.55;19.17;;;;;;;-7.03;100.00;99439.88;10176609;28;20048;-77
2021/12/21 23:51:39;;;;;;;31.48;18.77;;;;;;;-6.89;100.00;99441.66;10188626;28;20056;-79
2021/12/21 23:56:40;;;;;;;31.93;17.87;;;;;;;-6.91;100.00;99443.63;10209039;28;20103;-79
